Terminal Aerodrome Forecast
Issued by NWS

Home | Current Version | Previous Version | Text Only | Print | Product List | Glossary On
Versions: 1 2 3 4 5 6 7 8 9 10 11 12 13 14
000
FTUS45 KABQ 221900 AAA
TAFLVS
TAF AMD
KLVS 221900Z 2219/2318 07010G19KT P6SM SCT100
      TEMPO 2222/2224 VRB15G30KT -TSRA BKN070CB
     FM230000 10010KT P6SM VCSH BKN090
     FM230200 16009KT P6SM SCT090 BKN150
     FM230700 34005KT P6SM FEW100 BKN150=

USA.gov is the U.S. government's official web portal to all federal, state and local government web resources and services.